weather.gov     
National Weather Service

Terminal Aerodrome Forecast
NWS Homepage
This page is being discontinued on March 12, 2014.
The same data is available at this site. Please update your bookmarks.
Thank you, and we apologize for the inconvenience.
Please send an email to SR-SRH.Webmaster@noaa.gov with any concerns.


Current Version
Previous Version:    01  02  03  04  05  06  07  08  09  10  11  12  13  14  15  16  17  18  19  20  21  22  23  24  25  26  27  28  29  30  
   31  32  33  34  35  36  37  38  39  40  41  42  43  44  45  
[Printable]
866
FTUS43 KARX 220745 AAA
TAFLSE
TAF AMD
KLSE 220745Z 2208/2306 13003KT P6SM SCT002
     FM220900 13003KT 5SM BR BKN002
     FM221000 13003KT 1SM BR BKN002
      TEMPO 2210/2214 1/2SM FG BKN001
     FM221430 26006KT P6SM SKC
     FM222300 VRB03KT P6SM SKC=


866
FTUS43 KARX 220745 AAA
TAFLSE
TAF AMD
KLSE 220745Z 2208/2306 13003KT P6SM SCT002
     FM220900 13003KT 5SM BR BKN002
     FM221000 13003KT 1SM BR BKN002
      TEMPO 2210/2214 1/2SM FG BKN001
     FM221430 26006KT P6SM SKC
     FM222300 VRB03KT P6SM SKC=




U.S. Dept. of Commerce
NOAA National Weather Service
1325 East West Highway
Silver Spring, MD 20910
E-mail: w-nws.webmaster@noaa.gov
Page last modified: May 16, 2007
NATIONAL WEATHER SERVICE: for Safety, for Work, for Fun - FOR LIFE